createdAt,value
2023-05-18T00:02:07.552Z,21.38
2023-05-18T00:04:41.222Z,15.85
2023-05-18T00:07:12.745Z,10.25
2023-05-18T00:09:44.996Z,14.52
2023-05-18T00:12:16.504Z,10.98
2023-05-18T00:14:48.033Z,18.25
2023-05-18T00:17:21.401Z,6.93
2023-05-18T00:19:53.131Z,8.75
2023-05-18T00:22:25.331Z,8.95
2023-05-18T00:24:57.506Z,7.25
2023-05-18T00:27:32.570Z,17.30
2023-05-18T00:30:08.954Z,8.90
2023-05-18T00:32:40.569Z,7.95
2023-05-18T00:35:12.088Z,12.85
2023-05-18T00:37:44.742Z,6.18
2023-05-18T00:40:17.480Z,17.63
2023-05-18T00:42:51.164Z,13.95
2023-05-18T00:45:23.550Z,9.55
2023-05-18T00:47:56.534Z,19.40
2023-05-18T00:50:29.427Z,8.10
2023-05-18T00:53:02.830Z,8.07
2023-05-18T00:55:35.480Z,9.50
2023-05-18T00:58:08.678Z,6.70
2023-05-18T01:00:42.179Z,7.70
2023-05-18T01:03:17.147Z,9.35
2023-05-18T01:05:57.429Z,10.73
2023-05-18T01:08:31.207Z,7.88
2023-05-18T01:11:23.842Z,7.85
2023-05-18T01:14:08.315Z,14.05
2023-05-18T01:16:47.056Z,6.65
2023-05-18T01:19:43.726Z,10.20
2023-05-18T01:22:38.978Z,9.63
2023-05-18T01:25:20.964Z,10.45
2023-05-18T01:27:53.911Z,8.75
2023-05-18T01:30:24.999Z,14.20
2023-05-18T01:32:55.863Z,6.85
2023-05-18T01:35:26.778Z,10.35
2023-05-18T01:37:56.748Z,12.95
2023-05-18T01:40:30.709Z,10.00
2023-05-18T01:43:08.319Z,9.70
2023-05-18T01:45:44.460Z,5.03
2023-05-18T01:48:20.053Z,11.68
2023-05-18T01:50:54.114Z,5.57
2023-05-18T01:53:44.419Z,7.80
2023-05-18T01:56:15.785Z,17.83
2023-05-18T01:58:46.745Z,8.88
2023-05-18T02:01:21.230Z,15.90
2023-05-18T02:03:53.495Z,7.60
2023-05-18T02:06:24.427Z,6.80
2023-05-18T02:08:54.407Z,2.92
2023-05-18T02:11:25.708Z,6.05
2023-05-18T02:13:56.200Z,5.40
2023-05-18T02:16:26.432Z,8.15
2023-05-18T02:18:58.020Z,4.22
2023-05-18T02:21:28.815Z,9.70
2023-05-18T02:23:59.756Z,7.10
2023-05-18T02:26:30.515Z,8.32
2023-05-18T02:29:02.556Z,18.60
2023-05-18T02:31:33.901Z,6.22
2023-05-18T02:34:06.216Z,14.30
2023-05-18T02:36:42.026Z,7.03
2023-05-18T02:39:12.262Z,15.65
2023-05-18T02:41:42.965Z,17.65
2023-05-18T02:44:14.553Z,15.73
2023-05-18T02:46:45.044Z,21.77
2023-05-18T02:49:15.255Z,9.50
2023-05-18T02:51:45.892Z,8.25
2023-05-18T02:54:17.144Z,11.68
2023-05-18T02:56:47.667Z,12.32
2023-05-18T02:59:40.313Z,7.18
2023-05-18T03:02:11.155Z,9.73
2023-05-18T03:04:43.237Z,13.45
2023-05-18T03:07:13.471Z,11.82
2023-05-18T03:09:43.391Z,12.70
2023-05-18T03:12:13.805Z,15.13
2023-05-18T03:14:44.033Z,9.90
2023-05-18T03:17:14.947Z,10.77
2023-05-18T03:19:45.705Z,12.25
2023-05-18T03:22:16.660Z,4.72
2023-05-18T03:24:48.168Z,15.77
2023-05-18T03:27:21.392Z,4.82
2023-05-18T03:29:51.820Z,9.48
2023-05-18T03:32:21.717Z,6.65
2023-05-18T03:34:55.605Z,14.45
2023-05-18T03:37:26.293Z,12.43
2023-05-18T03:40:12.482Z,8.95
2023-05-18T03:42:44.878Z,10.93
2023-05-18T03:45:15.718Z,6.50
2023-05-18T03:47:47.038Z,7.88
2023-05-18T03:50:18.239Z,11.85
2023-05-18T03:52:48.388Z,9.13
2023-05-18T03:57:50.051Z,8.68
2023-05-18T04:00:21.160Z,5.07
2023-05-18T04:02:53.372Z,8.63
2023-05-18T04:05:27.177Z,6.25
2023-05-18T04:07:58.690Z,8.15
2023-05-18T04:10:29.462Z,6.72
2023-05-18T04:13:00.864Z,5.32
2023-05-18T04:15:31.228Z,4.28
2023-05-18T04:18:03.378Z,5.28
2023-05-18T04:20:34.070Z,5.57
2023-05-18T04:23:04.738Z,3.78
2023-05-18T04:25:35.050Z,6.97
2023-05-18T04:28:05.414Z,10.63
2023-05-18T04:30:38.825Z,14.35
2023-05-18T04:33:09.766Z,5.72
2023-05-18T04:35:39.589Z,11.57
2023-05-18T04:38:09.724Z,10.30
2023-05-18T04:43:18.692Z,8.77
2023-05-18T04:45:51.770Z,13.45
2023-05-18T04:48:22.129Z,4.93
2023-05-18T04:53:25.928Z,12.95
2023-05-18T04:55:57.894Z,6.55
2023-05-18T04:58:31.901Z,5.93
2023-05-18T05:01:02.831Z,7.10
2023-05-18T05:03:33.219Z,10.80
2023-05-18T05:06:06.165Z,6.57
2023-05-18T05:08:39.467Z,8.93
2023-05-18T05:11:12.543Z,12.30
2023-05-18T05:13:43.820Z,5.22
2023-05-18T05:16:14.308Z,9.20
2023-05-18T05:18:45.912Z,6.15
2023-05-18T05:21:18.229Z,11.18
2023-05-18T05:23:49.269Z,3.83
2023-05-18T05:26:21.248Z,20.48
2023-05-18T05:28:51.930Z,3.40
2023-05-18T05:31:23.143Z,7.80
2023-05-18T05:33:54.060Z,7.10
2023-05-18T05:36:26.009Z,7.03
2023-05-18T05:38:56.217Z,8.80
2023-05-18T05:41:26.458Z,15.48
2023-05-18T05:43:58.099Z,7.97
2023-05-18T05:46:28.552Z,4.55
2023-05-18T05:49:00.280Z,7.03
2023-05-18T05:51:30.455Z,5.35
2023-05-18T05:56:29.738Z,3.20
2023-05-18T05:58:59.991Z,3.95
2023-05-18T06:01:30.957Z,3.95
2023-05-18T06:04:01.478Z,3.97
2023-05-18T06:06:33.920Z,4.35
2023-05-18T06:09:05.843Z,4.75
2023-05-18T06:11:36.906Z,34.53
2023-05-18T06:14:07.592Z,3.15
2023-05-18T06:16:38.305Z,3.33
2023-05-18T06:19:09.722Z,8.32
2023-05-18T06:21:40.599Z,5.75
2023-05-18T06:24:12.560Z,4.60
2023-05-18T06:26:54.653Z,5.00
2023-05-18T06:30:00.578Z,6.43
2023-05-18T06:32:41.205Z,5.45
2023-05-18T06:35:12.038Z,3.25
2023-05-18T06:37:42.151Z,3.15
2023-05-18T06:40:13.031Z,3.08
2023-05-18T06:42:43.460Z,9.00
2023-05-18T06:45:36.148Z,5.07
2023-05-18T06:48:16.171Z,2.72
2023-05-18T06:50:47.655Z,2.97
2023-05-18T06:53:18.620Z,4.93
2023-05-18T06:55:48.711Z,2.95
2023-05-18T06:58:21.745Z,2.35
2023-05-18T07:00:53.049Z,7.43
2023-05-18T07:03:23.309Z,7.32
2023-05-18T07:05:53.356Z,3.63
2023-05-18T07:08:26.304Z,4.03
2023-05-18T07:11:00.085Z,2.38
2023-05-18T07:13:31.030Z,2.22
2023-05-18T07:16:02.128Z,4.10
2023-05-18T07:18:32.436Z,3.28
2023-05-18T07:21:02.897Z,2.33
2023-05-18T07:23:33.930Z,2.83
2023-05-18T07:26:04.177Z,3.97
2023-05-18T07:28:35.005Z,3.33
2023-05-18T07:31:06.855Z,2.45
2023-05-18T07:33:38.056Z,2.80
2023-05-18T07:36:10.062Z,2.17
2023-05-18T07:38:41.370Z,3.20
2023-05-18T07:41:13.356Z,3.20
2023-05-18T07:43:43.638Z,1.77
2023-05-18T07:48:44.570Z,3.45
2023-05-18T07:51:15.214Z,2.42
2023-05-18T07:53:47.272Z,3.55
2023-05-18T07:56:17.951Z,4.55
2023-05-18T07:58:50.009Z,6.45
2023-05-18T08:01:20.587Z,2.05
2023-05-18T08:03:51.397Z,4.00
2023-05-18T08:06:22.692Z,2.85
2023-05-18T08:08:58.176Z,2.85
2023-05-18T08:13:58.779Z,5.65
2023-05-18T08:16:29.025Z,2.42
2023-05-18T08:18:59.193Z,8.18
2023-05-18T08:21:30.689Z,3.42
2023-05-18T08:24:00.780Z,3.60
2023-05-18T08:26:30.590Z,4.35
2023-05-18T08:29:01.207Z,4.50
2023-05-18T08:31:32.065Z,3.00
2023-05-18T08:34:02.617Z,17.70
2023-05-18T08:36:34.713Z,3.20
2023-05-18T08:39:06.562Z,2.05
2023-05-18T08:41:42.538Z,4.60
2023-05-18T08:44:26.601Z,2.88
2023-05-18T08:46:57.398Z,2.55
2023-05-18T08:49:29.600Z,4.43
2023-05-18T08:52:04.944Z,7.32
2023-05-18T08:54:38.232Z,5.53
2023-05-18T08:57:11.054Z,4.88
2023-05-18T08:59:45.388Z,2.88
2023-05-18T09:02:15.970Z,3.17
2023-05-18T09:04:48.385Z,2.55
2023-05-18T09:07:19.677Z,4.15
2023-05-18T09:09:50.504Z,5.25
2023-05-18T09:15:20.945Z,4.68
2023-05-18T09:17:50.970Z,4.75
2023-05-18T09:22:52.650Z,3.95
2023-05-18T09:25:25.419Z,7.15
2023-05-18T09:27:57.799Z,6.00
2023-05-18T09:30:28.615Z,5.05
2023-05-18T09:35:29.783Z,2.38
2023-05-18T09:38:06.412Z,6.53
2023-05-18T09:40:36.675Z,3.53
2023-05-18T09:45:50.509Z,2.25
2023-05-18T09:48:23.474Z,2.47
2023-05-18T09:50:55.072Z,3.13
2023-05-18T09:53:24.904Z,2.45
2023-05-18T09:55:55.729Z,3.05
2023-05-18T09:58:26.364Z,6.10
2023-05-18T10:01:03.874Z,3.53
2023-05-18T10:03:40.724Z,3.45
2023-05-18T10:06:14.501Z,3.92
2023-05-18T10:08:46.696Z,5.22
2023-05-18T10:11:21.272Z,8.98
2023-05-18T10:13:57.301Z,14.02
2023-05-18T10:16:27.906Z,5.00
2023-05-18T10:18:59.091Z,7.18
2023-05-18T10:21:32.436Z,7.90
2023-05-18T10:24:05.841Z,8.68
2023-05-18T10:26:41.186Z,11.13
2023-05-18T10:29:12.351Z,10.98
2023-05-18T10:31:43.759Z,8.70
2023-05-18T10:34:14.228Z,10.38
2023-05-18T10:36:46.427Z,5.72
2023-05-18T10:39:17.440Z,4.75
2023-05-18T10:41:48.706Z,5.53
2023-05-18T10:44:19.504Z,10.15
2023-05-18T10:46:51.961Z,7.10
2023-05-18T10:49:27.334Z,12.73
2023-05-18T10:51:59.363Z,13.07
2023-05-18T10:54:30.738Z,10.30
2023-05-18T10:57:04.520Z,15.77
2023-05-18T10:59:36.042Z,6.82
2023-05-18T11:02:06.418Z,7.80
2023-05-18T11:04:36.336Z,5.40
2023-05-18T11:07:12.687Z,6.97
2023-05-18T11:09:46.798Z,6.10
2023-05-18T11:12:22.191Z,7.47
2023-05-18T11:14:54.440Z,12.02
2023-05-18T11:17:27.186Z,3.92
2023-05-18T11:20:11.051Z,3.65
2023-05-18T11:22:54.584Z,8.88
2023-05-18T11:25:27.375Z,8.45
2023-05-18T11:28:03.071Z,4.85
2023-05-18T11:30:41.532Z,21.23
2023-05-18T11:33:42.348Z,7.28
2023-05-18T11:36:15.960Z,9.00
2023-05-18T11:38:54.188Z,4.90
2023-05-18T11:41:40.432Z,6.22
2023-05-18T11:44:23.333Z,7.88
2023-05-18T11:47:04.764Z,8.65
2023-05-18T11:49:40.224Z,5.22
2023-05-18T11:52:23.325Z,10.48
2023-05-18T11:54:55.665Z,9.38
2023-05-18T11:57:41.976Z,4.95
2023-05-18T12:00:14.533Z,7.53
2023-05-18T12:02:47.682Z,7.57
2023-05-18T12:05:18.612Z,13.73
2023-05-18T12:07:54.977Z,15.55
2023-05-18T12:10:26.125Z,6.47
2023-05-18T12:12:57.732Z,9.77
2023-05-18T12:15:30.564Z,6.85
2023-05-18T12:18:00.860Z,7.15
2023-05-18T12:20:34.680Z,9.32
2023-05-18T12:23:05.581Z,8.63
2023-05-18T12:25:35.923Z,6.82
2023-05-18T12:28:06.016Z,7.22
2023-05-18T12:30:38.386Z,5.30
2023-05-18T12:33:10.212Z,8.68
2023-05-18T12:35:42.542Z,19.02
2023-05-18T12:38:12.875Z,6.93
2023-05-18T12:40:49.806Z,5.47
2023-05-18T12:43:20.522Z,6.28
2023-05-18T12:45:51.306Z,6.53
2023-05-18T12:48:23.426Z,8.48
2023-05-18T12:50:55.005Z,10.38
2023-05-18T12:53:25.747Z,7.53
2023-05-18T12:56:02.767Z,6.63
2023-05-18T12:58:34.069Z,10.50
2023-05-18T13:01:14.757Z,9.48
2023-05-18T13:03:45.668Z,13.60
2023-05-18T13:06:15.572Z,10.30
2023-05-18T13:08:49.913Z,7.88
2023-05-18T13:11:31.379Z,9.35
2023-05-18T13:14:10.252Z,10.10
2023-05-18T13:16:43.859Z,10.00
2023-05-18T13:19:20.368Z,11.15
2023-05-18T13:21:58.596Z,8.45
2023-05-18T13:24:29.588Z,9.73
2023-05-18T13:27:00.003Z,9.82
2023-05-18T13:29:30.111Z,11.27
2023-05-18T13:32:02.154Z,6.68
2023-05-18T13:34:33.065Z,9.65
2023-05-18T13:37:06.245Z,11.40
2023-05-18T13:39:36.833Z,10.05
2023-05-18T13:42:08.526Z,11.95
2023-05-18T13:44:40.107Z,6.63
2023-05-18T13:47:10.493Z,11.27
2023-05-18T13:49:40.305Z,10.32
2023-05-18T13:52:11.796Z,7.10
2023-05-18T13:54:48.750Z,7.25
2023-05-18T13:57:20.161Z,8.23
2023-05-18T13:59:50.461Z,7.80
2023-05-18T14:02:21.855Z,17.50
2023-05-18T14:04:54.083Z,9.15
2023-05-18T14:07:26.181Z,6.30
2023-05-18T14:09:56.848Z,9.82
2023-05-18T14:12:28.586Z,11.77
2023-05-18T14:15:00.178Z,9.45
2023-05-18T14:17:34.171Z,7.30
2023-05-18T14:20:08.251Z,13.90
2023-05-18T14:22:41.663Z,10.65
2023-05-18T14:25:14.625Z,7.65
2023-05-18T14:27:45.824Z,8.77
2023-05-18T14:30:16.568Z,7.40
2023-05-18T14:32:47.926Z,8.43
2023-05-18T14:35:20.602Z,5.97
2023-05-18T14:37:52.060Z,8.88
2023-05-18T14:40:22.612Z,8.15
2023-05-18T14:42:54.079Z,8.98
2023-05-18T14:45:25.793Z,6.25
2023-05-18T14:47:57.234Z,6.22
2023-05-18T14:50:28.141Z,7.82
2023-05-18T14:52:58.587Z,11.63
2023-05-18T14:55:29.747Z,20.23
2023-05-18T14:58:01.291Z,14.23
2023-05-18T15:00:32.091Z,9.57
2023-05-18T15:03:03.031Z,6.82
2023-05-18T15:05:36.349Z,7.97
2023-05-18T15:08:08.301Z,6.68
2023-05-18T15:10:38.562Z,7.03
2023-05-18T15:13:10.000Z,7.68
2023-05-18T15:15:41.001Z,5.78
2023-05-18T15:18:11.998Z,8.90
2023-05-18T15:20:45.901Z,8.63
2023-05-18T15:23:17.356Z,6.95
2023-05-18T15:25:48.103Z,14.40
2023-05-18T15:28:18.669Z,4.72
2023-05-18T15:30:48.481Z,5.68
2023-05-18T15:33:19.037Z,8.55
2023-05-18T15:35:50.413Z,7.05
2023-05-18T15:38:20.648Z,6.22
2023-05-18T15:40:52.051Z,6.70
2023-05-18T15:43:27.574Z,9.02
2023-05-18T15:45:59.974Z,9.95
2023-05-18T15:48:31.646Z,7.05
2023-05-18T15:51:01.775Z,7.85
2023-05-18T15:53:31.610Z,6.53
2023-05-18T15:56:02.226Z,5.78
2023-05-18T15:58:32.849Z,8.82
2023-05-18T16:01:03.215Z,7.47
2023-05-18T16:03:34.792Z,12.25
2023-05-18T16:06:05.493Z,8.40
2023-05-18T16:08:36.484Z,13.27
2023-05-18T16:11:08.431Z,9.52
2023-05-18T16:13:38.424Z,8.55
2023-05-18T16:16:11.258Z,7.82
2023-05-18T16:18:43.057Z,10.45
2023-05-18T16:21:13.515Z,8.63
2023-05-18T16:23:43.684Z,9.23
2023-05-18T16:26:14.690Z,9.25
2023-05-18T16:28:45.677Z,6.68
2023-05-18T16:31:16.723Z,6.07
2023-05-18T16:33:46.633Z,6.35
2023-05-18T16:36:16.808Z,8.75
2023-05-18T16:38:47.151Z,10.95
2023-05-18T16:41:18.138Z,9.15
2023-05-18T16:43:50.067Z,9.23
2023-05-18T16:46:21.844Z,10.30
2023-05-18T16:48:52.050Z,12.60
2023-05-18T16:51:22.449Z,11.52
2023-05-18T16:53:53.992Z,8.55
2023-05-18T16:56:23.974Z,9.30
2023-05-18T16:58:54.642Z,11.63
2023-05-18T17:01:28.788Z,9.85
2023-05-18T17:03:59.788Z,11.38
2023-05-18T17:06:29.712Z,8.63
2023-05-18T17:09:00.024Z,11.05
2023-05-18T17:11:30.352Z,10.82
2023-05-18T17:14:02.532Z,11.13
2023-05-18T17:16:34.360Z,11.02
2023-05-18T17:19:05.269Z,9.27
2023-05-18T17:21:36.428Z,7.82
2023-05-18T17:24:08.727Z,5.47
2023-05-18T17:26:39.288Z,7.28
2023-05-18T17:29:09.364Z,8.98
2023-05-18T17:31:44.368Z,10.45
2023-05-18T17:34:15.840Z,10.60
2023-05-18T17:36:47.224Z,7.20
2023-05-18T17:39:17.733Z,9.13
2023-05-18T17:41:52.807Z,8.15
2023-05-18T17:44:23.770Z,6.93
2023-05-18T17:46:55.026Z,7.90
2023-05-18T17:49:25.364Z,11.70
2023-05-18T17:51:56.049Z,6.55
2023-05-18T17:54:27.603Z,6.13
2023-05-18T17:57:01.104Z,6.60
2023-05-18T17:59:31.917Z,9.90
2023-05-18T18:02:02.651Z,4.18
2023-05-18T18:04:33.309Z,13.13
2023-05-18T18:07:04.784Z,3.88
2023-05-18T18:09:35.476Z,10.55
2023-05-18T18:12:08.097Z,7.93
2023-05-18T18:14:43.423Z,6.20
2023-05-18T18:17:16.087Z,11.30
2023-05-18T18:19:45.958Z,7.07
2023-05-18T18:22:22.930Z,4.85
2023-05-18T18:24:54.967Z,7.32
2023-05-18T18:27:26.498Z,6.63
2023-05-18T18:29:57.537Z,9.00
2023-05-18T18:32:29.338Z,8.38
2023-05-18T18:35:00.872Z,6.47
2023-05-18T18:37:30.990Z,5.13
2023-05-18T18:40:00.827Z,6.90
2023-05-18T18:42:32.295Z,9.07
2023-05-18T18:45:03.313Z,8.35
2023-05-18T18:47:33.609Z,7.50
2023-05-18T18:50:04.555Z,6.55
2023-05-18T18:52:36.423Z,9.73
2023-05-18T18:55:07.953Z,7.28
2023-05-18T18:57:38.485Z,6.55
2023-05-18T19:00:12.197Z,4.88
2023-05-18T19:02:43.068Z,7.97
2023-05-18T19:05:14.499Z,11.93
2023-05-18T19:07:44.926Z,4.82
2023-05-18T19:10:14.725Z,5.60
2023-05-18T19:12:46.765Z,5.95
2023-05-18T19:15:19.781Z,8.77
2023-05-18T19:17:56.026Z,6.82
2023-05-18T19:20:26.286Z,5.13
2023-05-18T19:22:57.062Z,10.52
2023-05-18T19:25:27.879Z,6.13
2023-05-18T19:28:00.192Z,8.05
2023-05-18T19:30:30.408Z,6.50
2023-05-18T19:33:00.561Z,4.40
2023-05-18T19:35:32.539Z,6.30
2023-05-18T19:38:03.417Z,13.05
2023-05-18T19:40:33.387Z,10.23
2023-05-18T19:43:04.552Z,8.73
2023-05-18T19:45:36.227Z,4.50
2023-05-18T19:48:06.854Z,9.82
2023-05-18T19:50:37.090Z,16.27
2023-05-18T19:53:07.132Z,31.10
2023-05-18T19:55:37.730Z,13.15
2023-05-18T19:58:08.145Z,32.00
2023-05-18T20:00:39.165Z,16.80
2023-05-18T20:03:10.557Z,19.65
2023-05-18T20:05:41.167Z,18.35
2023-05-18T20:08:13.731Z,8.20
2023-05-18T20:10:46.533Z,8.30
2023-05-18T20:13:16.665Z,9.35
2023-05-18T20:15:48.135Z,22.55
2023-05-18T20:18:19.284Z,28.75
2023-05-18T20:20:51.169Z,15.05
2023-05-18T20:23:21.305Z,9.10
2023-05-18T20:25:52.108Z,5.82
2023-05-18T20:28:22.899Z,7.40
2023-05-18T20:30:53.550Z,9.23
2023-05-18T20:33:24.119Z,13.50
2023-05-18T20:35:54.567Z,9.80
2023-05-18T20:38:27.153Z,20.52
2023-05-18T20:40:59.180Z,23.05
2023-05-18T20:43:29.736Z,21.10
2023-05-18T20:46:00.996Z,12.40
2023-05-18T20:48:32.849Z,21.13
2023-05-18T20:51:04.425Z,5.60
2023-05-18T20:53:35.498Z,10.70
2023-05-18T20:56:07.058Z,15.18
2023-05-18T20:58:37.307Z,14.52
2023-05-18T21:01:12.057Z,21.30
2023-05-18T21:03:46.443Z,10.70
2023-05-18T21:06:17.760Z,18.02
2023-05-18T21:08:47.934Z,42.60
2023-05-18T21:11:17.961Z,40.47
2023-05-18T21:13:49.222Z,38.55
2023-05-18T21:16:20.348Z,17.58
2023-05-18T21:18:51.317Z,19.35
2023-05-18T21:21:22.065Z,24.45
2023-05-18T21:23:53.489Z,27.75
2023-05-18T21:26:25.263Z,34.58
2023-05-18T21:28:55.963Z,35.55
2023-05-18T21:31:25.832Z,37.25
2023-05-18T21:33:56.572Z,37.13
2023-05-18T21:36:37.093Z,43.50
2023-05-18T21:39:10.237Z,67.57
2023-05-18T21:41:41.461Z,28.73
2023-05-18T21:44:13.574Z,27.67
2023-05-18T21:46:44.717Z,25.20
2023-05-18T21:49:14.997Z,28.85
2023-05-18T21:51:45.007Z,28.02
2023-05-18T21:54:15.950Z,32.92
2023-05-18T21:56:47.242Z,29.30
2023-05-18T21:59:18.458Z,25.45
2023-05-18T22:01:48.607Z,25.17
2023-05-18T22:04:19.092Z,19.27
2023-05-18T22:06:49.564Z,26.92
2023-05-18T22:09:21.394Z,34.67
2023-05-18T22:11:51.879Z,34.38
2023-05-18T22:14:21.856Z,37.83
2023-05-18T22:16:52.791Z,37.15
2023-05-18T22:19:23.915Z,100.32
2023-05-18T22:21:59.590Z,144.93
2023-05-18T22:26:59.685Z,104.70
2023-05-18T22:29:30.823Z,99.70
2023-05-18T22:32:02.153Z,103.30
2023-05-18T22:34:33.298Z,134.20
2023-05-18T22:37:04.738Z,157.23
2023-05-18T22:39:36.231Z,88.13
2023-05-18T22:42:06.929Z,76.35
2023-05-18T22:44:37.600Z,55.85
2023-05-18T22:47:10.522Z,46.03
2023-05-18T22:49:42.313Z,43.20
2023-05-18T22:52:12.403Z,38.50
2023-05-18T22:54:42.234Z,35.40
2023-05-18T22:57:12.873Z,41.67
2023-05-18T22:59:44.702Z,72.10
2023-05-18T23:02:15.620Z,75.22
2023-05-18T23:04:46.045Z,71.53
2023-05-18T23:07:16.129Z,49.83
2023-05-18T23:09:46.588Z,49.95
2023-05-18T23:12:18.437Z,30.80
2023-05-18T23:14:51.437Z,35.20
2023-05-18T23:17:23.899Z,29.08
2023-05-18T23:19:55.412Z,24.48
2023-05-18T23:22:26.077Z,26.98
2023-05-18T23:24:56.262Z,37.95
2023-05-18T23:27:26.120Z,28.48
2023-05-18T23:29:57.183Z,33.30
2023-05-18T23:32:28.649Z,30.85
2023-05-18T23:35:00.627Z,29.75
2023-05-18T23:37:33.006Z,22.48
2023-05-18T23:40:04.333Z,30.83
2023-05-18T23:42:35.429Z,23.52
2023-05-18T23:45:07.766Z,12.48
2023-05-18T23:47:38.481Z,11.50
2023-05-18T23:50:08.945Z,11.55
2023-05-18T23:52:42.765Z,21.50
2023-05-18T23:55:14.818Z,15.77
2023-05-18T23:57:45.346Z,18.77
